sensor_id;sensor_type;location;lat;lon;timestamp;P1;durP1;ratioP1;P2;durP2;ratioP2
10174;SDS011;18221;38.704;0.152;2023-07-08T00:13:46;8.57;;;4.13;;
10174;SDS011;18221;38.704;0.152;2023-07-08T00:16:15;4.78;;;3.45;;
10174;SDS011;18221;38.704;0.152;2023-07-08T00:18:45;7.07;;;4.15;;
10174;SDS011;18221;38.704;0.152;2023-07-08T00:21:15;4.72;;;3.70;;
10174;SDS011;18221;38.704;0.152;2023-07-08T00:23:45;4.00;;;3.40;;
10174;SDS011;18221;38.704;0.152;2023-07-08T00:26:17;4.53;;;2.72;;
10174;SDS011;18221;38.704;0.152;2023-07-08T00:28:50;3.00;;;2.60;;
10174;SDS011;18221;38.704;0.152;2023-07-08T00:31:19;4.43;;;3.00;;
10174;SDS011;18221;38.704;0.152;2023-07-08T00:33:49;3.13;;;2.63;;
10174;SDS011;18221;38.704;0.152;2023-07-08T00:36:20;4.53;;;2.78;;
10174;SDS011;18221;38.704;0.152;2023-07-08T00:38:51;3.67;;;2.75;;
10174;SDS011;18221;38.704;0.152;2023-07-08T00:41:20;5.13;;;3.10;;
10174;SDS011;18221;38.704;0.152;2023-07-08T00:43:57;3.93;;;2.73;;
10174;SDS011;18221;38.704;0.152;2023-07-08T00:46:31;3.50;;;2.90;;
10174;SDS011;18221;38.704;0.152;2023-07-08T00:49:23;4.90;;;3.88;;
10174;SDS011;18221;38.704;0.152;2023-07-08T00:54:50;6.63;;;4.03;;
10174;SDS011;18221;38.704;0.152;2023-07-08T00:57:20;7.73;;;4.50;;
10174;SDS011;18221;38.704;0.152;2023-07-08T00:59:56;7.83;;;4.90;;
10174;SDS011;18221;38.704;0.152;2023-07-08T01:02:30;7.25;;;5.05;;
10174;SDS011;18221;38.704;0.152;2023-07-08T01:05:09;7.93;;;5.30;;
10174;SDS011;18221;38.704;0.152;2023-07-08T01:07:41;8.30;;;4.97;;
10174;SDS011;18221;38.704;0.152;2023-07-08T01:10:17;9.03;;;5.23;;
10174;SDS011;18221;38.704;0.152;2023-07-08T01:12:54;10.80;;;5.03;;
10174;SDS011;18221;38.704;0.152;2023-07-08T01:15:31;8.13;;;5.53;;
10174;SDS011;18221;38.704;0.152;2023-07-08T01:18:08;9.57;;;5.60;;
10174;SDS011;18221;38.704;0.152;2023-07-08T01:20:42;7.13;;;5.20;;
10174;SDS011;18221;38.704;0.152;2023-07-08T01:23:14;8.23;;;5.87;;
10174;SDS011;18221;38.704;0.152;2023-07-08T01:25:44;9.43;;;5.40;;
10174;SDS011;18221;38.704;0.152;2023-07-08T01:28:13;7.77;;;5.90;;
10174;SDS011;18221;38.704;0.152;2023-07-08T01:30:42;9.07;;;5.80;;
10174;SDS011;18221;38.704;0.152;2023-07-08T01:33:13;13.13;;;6.00;;
10174;SDS011;18221;38.704;0.152;2023-07-08T01:35:47;8.93;;;6.00;;
10174;SDS011;18221;38.704;0.152;2023-07-08T01:38:18;9.00;;;5.37;;
10174;SDS011;18221;38.704;0.152;2023-07-08T01:40:53;11.43;;;5.80;;
10174;SDS011;18221;38.704;0.152;2023-07-08T01:43:23;12.40;;;5.97;;
10174;SDS011;18221;38.704;0.152;2023-07-08T01:45:51;11.47;;;5.97;;
10174;SDS011;18221;38.704;0.152;2023-07-08T01:48:21;11.33;;;6.00;;
10174;SDS011;18221;38.704;0.152;2023-07-08T01:50:54;9.40;;;5.53;;
10174;SDS011;18221;38.704;0.152;2023-07-08T01:53:31;7.37;;;5.53;;
10174;SDS011;18221;38.704;0.152;2023-07-08T01:56:02;10.53;;;6.50;;
10174;SDS011;18221;38.704;0.152;2023-07-08T01:58:32;10.13;;;6.30;;
10174;SDS011;18221;38.704;0.152;2023-07-08T02:01:00;8.73;;;5.93;;
10174;SDS011;18221;38.704;0.152;2023-07-08T02:03:29;11.83;;;6.37;;
10174;SDS011;18221;38.704;0.152;2023-07-08T02:05:58;10.77;;;5.87;;
10174;SDS011;18221;38.704;0.152;2023-07-08T02:08:26;12.77;;;6.20;;
10174;SDS011;18221;38.704;0.152;2023-07-08T02:10:57;13.13;;;6.40;;
10174;SDS011;18221;38.704;0.152;2023-07-08T02:13:25;9.27;;;6.00;;
10174;SDS011;18221;38.704;0.152;2023-07-08T02:15:53;9.40;;;6.37;;
10174;SDS011;18221;38.704;0.152;2023-07-08T02:18:22;10.83;;;6.03;;
10174;SDS011;18221;38.704;0.152;2023-07-08T02:20:50;11.53;;;6.37;;
10174;SDS011;18221;38.704;0.152;2023-07-08T02:23:18;9.03;;;6.00;;
10174;SDS011;18221;38.704;0.152;2023-07-08T02:25:50;9.53;;;5.83;;
10174;SDS011;18221;38.704;0.152;2023-07-08T02:28:20;9.93;;;6.03;;
10174;SDS011;18221;38.704;0.152;2023-07-08T02:30:48;8.07;;;6.80;;
10174;SDS011;18221;38.704;0.152;2023-07-08T02:33:16;9.40;;;6.83;;
10174;SDS011;18221;38.704;0.152;2023-07-08T02:35:44;9.63;;;6.27;;
10174;SDS011;18221;38.704;0.152;2023-07-08T02:38:13;9.73;;;6.60;;
10174;SDS011;18221;38.704;0.152;2023-07-08T02:40:41;10.10;;;7.23;;
10174;SDS011;18221;38.704;0.152;2023-07-08T02:43:09;8.03;;;5.83;;
10174;SDS011;18221;38.704;0.152;2023-07-08T02:45:39;8.07;;;6.07;;
10174;SDS011;18221;38.704;0.152;2023-07-08T02:48:07;7.03;;;5.80;;
10174;SDS011;18221;38.704;0.152;2023-07-08T02:50:35;8.43;;;6.20;;
10174;SDS011;18221;38.704;0.152;2023-07-08T02:53:03;11.17;;;6.40;;
10174;SDS011;18221;38.704;0.152;2023-07-08T02:55:31;11.10;;;6.60;;
10174;SDS011;18221;38.704;0.152;2023-07-08T02:57:59;7.03;;;5.83;;
10174;SDS011;18221;38.704;0.152;2023-07-08T03:00:28;8.97;;;5.80;;
10174;SDS011;18221;38.704;0.152;2023-07-08T03:02:57;7.23;;;5.70;;
10174;SDS011;18221;38.704;0.152;2023-07-08T03:05:26;10.63;;;6.17;;
10174;SDS011;18221;38.704;0.152;2023-07-08T03:07:54;8.40;;;6.07;;
10174;SDS011;18221;38.704;0.152;2023-07-08T03:10:22;9.47;;;5.77;;
10174;SDS011;18221;38.704;0.152;2023-07-08T03:12:50;9.30;;;5.97;;
10174;SDS011;18221;38.704;0.152;2023-07-08T03:15:18;9.00;;;5.73;;
10174;SDS011;18221;38.704;0.152;2023-07-08T03:17:46;8.90;;;6.50;;
10174;SDS011;18221;38.704;0.152;2023-07-08T03:20:16;8.00;;;6.07;;
10174;SDS011;18221;38.704;0.152;2023-07-08T03:22:45;12.80;;;6.57;;
10174;SDS011;18221;38.704;0.152;2023-07-08T03:25:13;12.00;;;6.50;;
10174;SDS011;18221;38.704;0.152;2023-07-08T03:27:45;12.33;;;6.07;;
10174;SDS011;18221;38.704;0.152;2023-07-08T03:30:13;8.00;;;5.77;;
10174;SDS011;18221;38.704;0.152;2023-07-08T03:32:41;8.03;;;6.27;;
10174;SDS011;18221;38.704;0.152;2023-07-08T03:35:10;9.90;;;6.57;;
10174;SDS011;18221;38.704;0.152;2023-07-08T03:37:39;8.53;;;6.40;;
10174;SDS011;18221;38.704;0.152;2023-07-08T03:40:08;8.27;;;6.53;;
10174;SDS011;18221;38.704;0.152;2023-07-08T03:42:38;10.33;;;7.10;;
10174;SDS011;18221;38.704;0.152;2023-07-08T03:45:06;11.93;;;6.30;;
10174;SDS011;18221;38.704;0.152;2023-07-08T03:47:35;10.57;;;6.30;;
10174;SDS011;18221;38.704;0.152;2023-07-08T03:50:04;9.57;;;6.83;;
10174;SDS011;18221;38.704;0.152;2023-07-08T03:52:41;7.53;;;5.87;;
10174;SDS011;18221;38.704;0.152;2023-07-08T03:55:10;10.73;;;6.57;;
10174;SDS011;18221;38.704;0.152;2023-07-08T03:57:39;9.73;;;6.33;;
10174;SDS011;18221;38.704;0.152;2023-07-08T04:00:07;8.43;;;6.40;;
10174;SDS011;18221;38.704;0.152;2023-07-08T04:02:37;9.33;;;6.23;;
10174;SDS011;18221;38.704;0.152;2023-07-08T04:05:06;8.83;;;6.43;;
10174;SDS011;18221;38.704;0.152;2023-07-08T04:07:41;8.37;;;6.20;;
10174;SDS011;18221;38.704;0.152;2023-07-08T04:10:09;9.53;;;6.30;;
10174;SDS011;18221;38.704;0.152;2023-07-08T04:12:38;10.97;;;6.30;;
10174;SDS011;18221;38.704;0.152;2023-07-08T04:15:08;9.00;;;5.97;;
10174;SDS011;18221;38.704;0.152;2023-07-08T04:17:39;8.77;;;6.57;;
10174;SDS011;18221;38.704;0.152;2023-07-08T04:20:13;12.07;;;6.07;;
10174;SDS011;18221;38.704;0.152;2023-07-08T04:22:45;9.07;;;6.17;;
10174;SDS011;18221;38.704;0.152;2023-07-08T04:25:14;8.03;;;6.33;;
10174;SDS011;18221;38.704;0.152;2023-07-08T04:27:42;9.40;;;6.00;;
10174;SDS011;18221;38.704;0.152;2023-07-08T04:30:14;9.87;;;6.27;;
10174;SDS011;18221;38.704;0.152;2023-07-08T04:32:51;6.80;;;6.00;;
10174;SDS011;18221;38.704;0.152;2023-07-08T04:35:19;8.60;;;5.53;;
10174;SDS011;18221;38.704;0.152;2023-07-08T04:37:49;9.10;;;5.63;;
10174;SDS011;18221;38.704;0.152;2023-07-08T04:40:17;8.07;;;6.17;;
10174;SDS011;18221;38.704;0.152;2023-07-08T04:42:47;7.77;;;5.57;;
10174;SDS011;18221;38.704;0.152;2023-07-08T04:45:17;10.60;;;5.47;;
10174;SDS011;18221;38.704;0.152;2023-07-08T04:47:46;7.53;;;5.67;;
10174;SDS011;18221;38.704;0.152;2023-07-08T04:50:17;8.87;;;6.67;;
10174;SDS011;18221;38.704;0.152;2023-07-08T04:52:45;5.93;;;5.33;;
10174;SDS011;18221;38.704;0.152;2023-07-08T04:55:16;6.90;;;5.53;;
10174;SDS011;18221;38.704;0.152;2023-07-08T04:57:45;9.50;;;5.93;;
10174;SDS011;18221;38.704;0.152;2023-07-08T05:00:15;6.80;;;5.93;;
10174;SDS011;18221;38.704;0.152;2023-07-08T05:02:44;8.73;;;6.27;;
10174;SDS011;18221;38.704;0.152;2023-07-08T05:05:13;9.17;;;5.80;;
10174;SDS011;18221;38.704;0.152;2023-07-08T05:07:41;8.43;;;6.17;;
10174;SDS011;18221;38.704;0.152;2023-07-08T05:10:09;8.17;;;5.80;;
10174;SDS011;18221;38.704;0.152;2023-07-08T05:12:39;8.67;;;5.93;;
10174;SDS011;18221;38.704;0.152;2023-07-08T05:15:07;9.63;;;6.00;;
10174;SDS011;18221;38.704;0.152;2023-07-08T05:17:37;7.80;;;6.10;;
10174;SDS011;18221;38.704;0.152;2023-07-08T05:20:06;9.33;;;6.27;;
10174;SDS011;18221;38.704;0.152;2023-07-08T05:22:38;7.50;;;6.00;;
10174;SDS011;18221;38.704;0.152;2023-07-08T05:25:08;8.23;;;6.30;;
10174;SDS011;18221;38.704;0.152;2023-07-08T05:27:38;6.30;;;5.57;;
10174;SDS011;18221;38.704;0.152;2023-07-08T05:30:08;8.57;;;5.87;;
10174;SDS011;18221;38.704;0.152;2023-07-08T05:32:42;7.13;;;6.17;;
10174;SDS011;18221;38.704;0.152;2023-07-08T05:35:11;8.80;;;6.20;;
10174;SDS011;18221;38.704;0.152;2023-07-08T05:37:39;8.93;;;6.03;;
10174;SDS011;18221;38.704;0.152;2023-07-08T05:40:10;7.83;;;6.10;;
10174;SDS011;18221;38.704;0.152;2023-07-08T05:42:40;7.00;;;6.30;;
10174;SDS011;18221;38.704;0.152;2023-07-08T05:45:08;6.80;;;6.13;;
10174;SDS011;18221;38.704;0.152;2023-07-08T05:47:36;7.07;;;6.10;;
10174;SDS011;18221;38.704;0.152;2023-07-08T05:50:05;9.53;;;6.07;;
10174;SDS011;18221;38.704;0.152;2023-07-08T05:52:34;8.27;;;6.37;;
10174;SDS011;18221;38.704;0.152;2023-07-08T05:55:02;6.77;;;6.07;;
10174;SDS011;18221;38.704;0.152;2023-07-08T05:57:30;6.97;;;5.37;;
10174;SDS011;18221;38.704;0.152;2023-07-08T06:00:00;9.97;;;5.87;;
10174;SDS011;18221;38.704;0.152;2023-07-08T06:02:29;6.83;;;6.10;;
10174;SDS011;18221;38.704;0.152;2023-07-08T06:04:57;8.90;;;5.90;;
10174;SDS011;18221;38.704;0.152;2023-07-08T06:07:25;8.67;;;5.90;;
10174;SDS011;18221;38.704;0.152;2023-07-08T06:09:53;9.13;;;6.03;;
10174;SDS011;18221;38.704;0.152;2023-07-08T06:12:22;8.47;;;5.90;;
10174;SDS011;18221;38.704;0.152;2023-07-08T06:14:50;8.43;;;5.90;;
10174;SDS011;18221;38.704;0.152;2023-07-08T06:17:20;6.47;;;5.83;;
10174;SDS011;18221;38.704;0.152;2023-07-08T06:19:48;9.37;;;6.47;;
10174;SDS011;18221;38.704;0.152;2023-07-08T06:22:16;8.70;;;6.03;;
10174;SDS011;18221;38.704;0.152;2023-07-08T06:24:45;6.70;;;5.80;;
10174;SDS011;18221;38.704;0.152;2023-07-08T06:27:13;7.50;;;5.87;;
10174;SDS011;18221;38.704;0.152;2023-07-08T06:29:42;7.50;;;5.47;;
10174;SDS011;18221;38.704;0.152;2023-07-08T06:32:11;7.97;;;5.83;;
10174;SDS011;18221;38.704;0.152;2023-07-08T06:34:40;8.17;;;5.87;;
10174;SDS011;18221;38.704;0.152;2023-07-08T06:37:09;10.35;;;5.97;;
10174;SDS011;18221;38.704;0.152;2023-07-08T06:39:37;7.90;;;5.75;;
10174;SDS011;18221;38.704;0.152;2023-07-08T06:42:05;10.10;;;5.90;;
10174;SDS011;18221;38.704;0.152;2023-07-08T06:44:33;8.17;;;5.77;;
10174;SDS011;18221;38.704;0.152;2023-07-08T06:47:03;9.23;;;5.50;;
10174;SDS011;18221;38.704;0.152;2023-07-08T06:49:32;6.50;;;5.10;;
10174;SDS011;18221;38.704;0.152;2023-07-08T06:52:01;6.50;;;4.45;;
10174;SDS011;18221;38.704;0.152;2023-07-08T06:54:30;4.78;;;4.20;;
10174;SDS011;18221;38.704;0.152;2023-07-08T06:56:57;7.28;;;4.55;;
10174;SDS011;18221;38.704;0.152;2023-07-08T06:59:25;5.33;;;4.40;;
10174;SDS011;18221;38.704;0.152;2023-07-08T07:01:54;5.43;;;4.13;;
10174;SDS011;18221;38.704;0.152;2023-07-08T07:04:22;9.40;;;4.03;;
10174;SDS011;18221;38.704;0.152;2023-07-08T07:06:50;5.88;;;4.28;;
10174;SDS011;18221;38.704;0.152;2023-07-08T07:09:19;7.28;;;4.45;;
10174;SDS011;18221;38.704;0.152;2023-07-08T07:11:47;5.85;;;4.07;;
10174;SDS011;18221;38.704;0.152;2023-07-08T07:14:16;9.82;;;4.53;;
10174;SDS011;18221;38.704;0.152;2023-07-08T07:16:44;5.20;;;4.03;;
10174;SDS011;18221;38.704;0.152;2023-07-08T07:19:12;7.20;;;4.70;;
10174;SDS011;18221;38.704;0.152;2023-07-08T07:21:40;7.03;;;4.40;;
10174;SDS011;18221;38.704;0.152;2023-07-08T07:24:08;5.30;;;3.85;;
10174;SDS011;18221;38.704;0.152;2023-07-08T07:26:40;7.13;;;4.63;;
10174;SDS011;18221;38.704;0.152;2023-07-08T07:29:08;5.80;;;4.50;;
10174;SDS011;18221;38.704;0.152;2023-07-08T07:31:36;7.82;;;4.57;;
10174;SDS011;18221;38.704;0.152;2023-07-08T07:34:05;11.73;;;4.45;;
10174;SDS011;18221;38.704;0.152;2023-07-08T07:36:34;9.10;;;4.43;;
10174;SDS011;18221;38.704;0.152;2023-07-08T07:39:02;6.03;;;3.85;;
10174;SDS011;18221;38.704;0.152;2023-07-08T07:41:30;5.15;;;3.92;;
10174;SDS011;18221;38.704;0.152;2023-07-08T07:44:00;7.47;;;4.40;;
10174;SDS011;18221;38.704;0.152;2023-07-08T07:46:28;7.05;;;4.47;;
10174;SDS011;18221;38.704;0.152;2023-07-08T07:48:56;8.40;;;4.32;;
10174;SDS011;18221;38.704;0.152;2023-07-08T07:51:24;6.63;;;4.32;;
10174;SDS011;18221;38.704;0.152;2023-07-08T07:53:52;6.63;;;4.07;;
10174;SDS011;18221;38.704;0.152;2023-07-08T07:56:20;8.70;;;4.18;;
10174;SDS011;18221;38.704;0.152;2023-07-08T07:58:49;5.75;;;4.05;;
10174;SDS011;18221;38.704;0.152;2023-07-08T08:01:19;6.82;;;4.25;;
10174;SDS011;18221;38.704;0.152;2023-07-08T08:03:48;6.63;;;4.65;;
10174;SDS011;18221;38.704;0.152;2023-07-08T08:06:19;7.80;;;4.55;;
10174;SDS011;18221;38.704;0.152;2023-07-08T08:08:48;7.72;;;4.20;;
10174;SDS011;18221;38.704;0.152;2023-07-08T08:11:16;6.95;;;4.57;;
10174;SDS011;18221;38.704;0.152;2023-07-08T08:13:44;7.18;;;4.30;;
10174;SDS011;18221;38.704;0.152;2023-07-08T08:16:12;6.97;;;4.20;;
10174;SDS011;18221;38.704;0.152;2023-07-08T08:18:41;7.72;;;4.18;;
10174;SDS011;18221;38.704;0.152;2023-07-08T08:21:10;8.10;;;4.20;;
10174;SDS011;18221;38.704;0.152;2023-07-08T08:23:38;7.82;;;4.03;;
10174;SDS011;18221;38.704;0.152;2023-07-08T08:26:06;7.38;;;3.78;;
10174;SDS011;18221;38.704;0.152;2023-07-08T08:28:35;8.98;;;3.80;;
10174;SDS011;18221;38.704;0.152;2023-07-08T08:31:03;8.15;;;4.10;;
10174;SDS011;18221;38.704;0.152;2023-07-08T08:33:31;5.15;;;3.53;;
10174;SDS011;18221;38.704;0.152;2023-07-08T08:36:01;5.97;;;3.65;;
10174;SDS011;18221;38.704;0.152;2023-07-08T08:38:29;5.97;;;3.47;;
10174;SDS011;18221;38.704;0.152;2023-07-08T08:40:57;8.57;;;3.65;;
10174;SDS011;18221;38.704;0.152;2023-07-08T08:43:31;5.40;;;3.20;;
10174;SDS011;18221;38.704;0.152;2023-07-08T08:46:06;6.68;;;3.47;;
10174;SDS011;18221;38.704;0.152;2023-07-08T08:48:43;4.95;;;3.20;;
10174;SDS011;18221;38.704;0.152;2023-07-08T08:51:22;8.20;;;3.65;;
10174;SDS011;18221;38.704;0.152;2023-07-08T08:53:57;6.80;;;3.25;;
10174;SDS011;18221;38.704;0.152;2023-07-08T08:56:27;6.15;;;3.00;;
10174;SDS011;18221;38.704;0.152;2023-07-08T08:59:03;6.13;;;3.05;;
10174;SDS011;18221;38.704;0.152;2023-07-08T09:01:43;10.23;;;3.40;;
10174;SDS011;18221;38.704;0.152;2023-07-08T09:04:15;7.72;;;3.60;;
10174;SDS011;18221;38.704;0.152;2023-07-08T09:06:56;6.90;;;3.22;;
10174;SDS011;18221;38.704;0.152;2023-07-08T09:09:35;6.65;;;3.20;;
10174;SDS011;18221;38.704;0.152;2023-07-08T09:12:15;5.10;;;3.50;;
10174;SDS011;18221;38.704;0.152;2023-07-08T09:14:48;4.15;;;3.25;;
10174;SDS011;18221;38.704;0.152;2023-07-08T09:17:19;7.72;;;3.95;;
10174;SDS011;18221;38.704;0.152;2023-07-08T09:19:57;8.65;;;3.78;;
10174;SDS011;18221;38.704;0.152;2023-07-08T09:22:35;8.13;;;4.00;;
10174;SDS011;18221;38.704;0.152;2023-07-08T09:25:12;7.18;;;3.90;;
10174;SDS011;18221;38.704;0.152;2023-07-08T09:27:53;5.97;;;3.70;;
10174;SDS011;18221;38.704;0.152;2023-07-08T09:30:23;12.50;;;4.60;;
10174;SDS011;18221;38.704;0.152;2023-07-08T09:32:54;6.80;;;3.95;;
10174;SDS011;18221;38.704;0.152;2023-07-08T09:35:23;6.10;;;3.90;;
10174;SDS011;18221;38.704;0.152;2023-07-08T09:37:55;10.70;;;4.00;;
10174;SDS011;18221;38.704;0.152;2023-07-08T09:40:31;7.30;;;4.72;;
10174;SDS011;18221;38.704;0.152;2023-07-08T09:43:01;8.55;;;4.03;;
10174;SDS011;18221;38.704;0.152;2023-07-08T09:45:49;5.70;;;4.22;;
10174;SDS011;18221;38.704;0.152;2023-07-08T09:48:18;8.90;;;4.05;;
10174;SDS011;18221;38.704;0.152;2023-07-08T09:50:51;9.25;;;4.35;;
10174;SDS011;18221;38.704;0.152;2023-07-08T09:53:22;9.38;;;4.70;;
10174;SDS011;18221;38.704;0.152;2023-07-08T09:55:52;6.70;;;4.07;;
10174;SDS011;18221;38.704;0.152;2023-07-08T09:58:23;6.82;;;4.30;;
10174;SDS011;18221;38.704;0.152;2023-07-08T10:00:57;7.82;;;3.97;;
10174;SDS011;18221;38.704;0.152;2023-07-08T10:03:28;5.32;;;4.25;;
10174;SDS011;18221;38.704;0.152;2023-07-08T10:06:03;6.53;;;4.28;;
10174;SDS011;18221;38.704;0.152;2023-07-08T10:08:43;7.00;;;4.00;;
10174;SDS011;18221;38.704;0.152;2023-07-08T10:11:12;5.95;;;4.05;;
10174;SDS011;18221;38.704;0.152;2023-07-08T10:13:52;8.95;;;3.88;;
10174;SDS011;18221;38.704;0.152;2023-07-08T10:16:26;7.57;;;4.38;;
10174;SDS011;18221;38.704;0.152;2023-07-08T10:18:59;9.43;;;4.38;;
10174;SDS011;18221;38.704;0.152;2023-07-08T10:21:30;7.28;;;4.22;;
10174;SDS011;18221;38.704;0.152;2023-07-08T10:24:18;8.27;;;4.03;;
10174;SDS011;18221;38.704;0.152;2023-07-08T10:27:06;7.57;;;4.32;;
10174;SDS011;18221;38.704;0.152;2023-07-08T10:29:47;7.03;;;4.10;;
10174;SDS011;18221;38.704;0.152;2023-07-08T10:32:30;7.47;;;4.03;;
10174;SDS011;18221;38.704;0.152;2023-07-08T10:35:12;6.72;;;4.03;;
10174;SDS011;18221;38.704;0.152;2023-07-08T10:37:49;7.18;;;3.90;;
10174;SDS011;18221;38.704;0.152;2023-07-08T10:40:47;8.23;;;4.30;;
10174;SDS011;18221;38.704;0.152;2023-07-08T10:43:27;8.15;;;4.13;;
10174;SDS011;18221;38.704;0.152;2023-07-08T10:46:22;5.03;;;3.72;;
10174;SDS011;18221;38.704;0.152;2023-07-08T10:52:23;6.32;;;4.00;;
10174;SDS011;18221;38.704;0.152;2023-07-08T10:55:14;7.88;;;4.15;;
10174;SDS011;18221;38.704;0.152;2023-07-08T10:58:04;6.47;;;4.13;;
10174;SDS011;18221;38.704;0.152;2023-07-08T11:01:00;6.22;;;4.10;;
10174;SDS011;18221;38.704;0.152;2023-07-08T11:03:56;9.00;;;4.60;;
10174;SDS011;18221;38.704;0.152;2023-07-08T11:06:48;7.65;;;4.10;;
10174;SDS011;18221;38.704;0.152;2023-07-08T11:09:21;5.93;;;3.95;;
10174;SDS011;18221;38.704;0.152;2023-07-08T11:11:56;7.13;;;4.20;;
10174;SDS011;18221;38.704;0.152;2023-07-08T11:14:33;9.15;;;4.50;;
10174;SDS011;18221;38.704;0.152;2023-07-08T11:17:14;10.40;;;4.53;;
10174;SDS011;18221;38.704;0.152;2023-07-08T11:19:57;8.77;;;4.70;;
10174;SDS011;18221;38.704;0.152;2023-07-08T11:22:37;7.57;;;4.28;;
10174;SDS011;18221;38.704;0.152;2023-07-08T11:25:17;5.90;;;3.70;;
10174;SDS011;18221;38.704;0.152;2023-07-08T11:27:48;10.77;;;4.43;;
10174;SDS011;18221;38.704;0.152;2023-07-08T11:30:23;8.13;;;4.32;;
10174;SDS011;18221;38.704;0.152;2023-07-08T11:32:58;5.57;;;4.28;;
10174;SDS011;18221;38.704;0.152;2023-07-08T11:35:36;7.75;;;4.40;;
10174;SDS011;18221;38.704;0.152;2023-07-08T11:38:10;8.02;;;4.35;;
10174;SDS011;18221;38.704;0.152;2023-07-08T11:40:50;5.45;;;4.10;;
10174;SDS011;18221;38.704;0.152;2023-07-08T11:43:23;8.10;;;4.68;;
10174;SDS011;18221;38.704;0.152;2023-07-08T11:46:03;15.48;;;4.80;;
10174;SDS011;18221;38.704;0.152;2023-07-08T11:48:36;9.15;;;4.30;;
10174;SDS011;18221;38.704;0.152;2023-07-08T11:51:10;10.38;;;4.43;;
10174;SDS011;18221;38.704;0.152;2023-07-08T11:53:49;9.45;;;4.28;;
10174;SDS011;18221;38.704;0.152;2023-07-08T11:56:26;7.53;;;3.97;;
10174;SDS011;18221;38.704;0.152;2023-07-08T11:58:59;8.02;;;4.10;;
10174;SDS011;18221;38.704;0.152;2023-07-08T12:01:48;7.70;;;4.50;;
10174;SDS011;18221;38.704;0.152;2023-07-08T12:04:28;5.90;;;3.80;;
10174;SDS011;18221;38.704;0.152;2023-07-08T12:07:14;10.32;;;4.72;;
10174;SDS011;18221;38.704;0.152;2023-07-08T12:09:47;8.20;;;4.13;;
10174;SDS011;18221;38.704;0.152;2023-07-08T12:12:25;10.65;;;4.20;;
10174;SDS011;18221;38.704;0.152;2023-07-08T12:15:10;6.63;;;3.80;;
10174;SDS011;18221;38.704;0.152;2023-07-08T12:17:46;7.57;;;3.80;;
10174;SDS011;18221;38.704;0.152;2023-07-08T12:20:19;9.00;;;4.03;;
10174;SDS011;18221;38.704;0.152;2023-07-08T12:22:50;5.03;;;3.72;;
10174;SDS011;18221;38.704;0.152;2023-07-08T12:25:20;7.00;;;4.03;;
10174;SDS011;18221;38.704;0.152;2023-07-08T12:27:54;8.10;;;4.07;;
10174;SDS011;18221;38.704;0.152;2023-07-08T12:30:22;8.00;;;4.13;;
10174;SDS011;18221;38.704;0.152;2023-07-08T12:32:55;6.47;;;4.22;;
10174;SDS011;18221;38.704;0.152;2023-07-08T12:35:25;9.93;;;4.07;;
10174;SDS011;18221;38.704;0.152;2023-07-08T12:37:58;6.75;;;4.20;;
10174;SDS011;18221;38.704;0.152;2023-07-08T12:40:29;8.70;;;4.03;;
10174;SDS011;18221;38.704;0.152;2023-07-08T12:42:58;7.72;;;4.40;;
10174;SDS011;18221;38.704;0.152;2023-07-08T12:45:27;6.60;;;3.70;;
10174;SDS011;18221;38.704;0.152;2023-07-08T12:47:59;8.25;;;3.88;;
10174;SDS011;18221;38.704;0.152;2023-07-08T12:50:28;7.57;;;3.90;;
10174;SDS011;18221;38.704;0.152;2023-07-08T12:52:56;7.00;;;3.88;;
10174;SDS011;18221;38.704;0.152;2023-07-08T12:55:28;7.88;;;3.95;;
10174;SDS011;18221;38.704;0.152;2023-07-08T12:57:57;8.18;;;3.92;;
10174;SDS011;18221;38.704;0.152;2023-07-08T13:00:28;7.60;;;4.10;;
10174;SDS011;18221;38.704;0.152;2023-07-08T13:03:05;6.68;;;3.70;;
10174;SDS011;18221;38.704;0.152;2023-07-08T13:05:40;8.75;;;4.65;;
10174;SDS011;18221;38.704;0.152;2023-07-08T13:08:10;6.57;;;4.10;;
10174;SDS011;18221;38.704;0.152;2023-07-08T13:10:41;8.68;;;4.13;;
10174;SDS011;18221;38.704;0.152;2023-07-08T13:13:12;7.63;;;4.25;;
10174;SDS011;18221;38.704;0.152;2023-07-08T13:15:47;6.25;;;3.90;;
10174;SDS011;18221;38.704;0.152;2023-07-08T13:18:17;4.90;;;4.07;;
10174;SDS011;18221;38.704;0.152;2023-07-08T13:20:49;7.40;;;4.05;;
10174;SDS011;18221;38.704;0.152;2023-07-08T13:23:20;7.78;;;4.43;;
10174;SDS011;18221;38.704;0.152;2023-07-08T13:25:50;5.65;;;3.70;;
10174;SDS011;18221;38.704;0.152;2023-07-08T13:28:22;6.82;;;3.80;;
10174;SDS011;18221;38.704;0.152;2023-07-08T13:30:54;8.90;;;4.25;;
10174;SDS011;18221;38.704;0.152;2023-07-08T13:33:30;7.60;;;3.95;;
10174;SDS011;18221;38.704;0.152;2023-07-08T13:36:00;7.32;;;4.00;;
10174;SDS011;18221;38.704;0.152;2023-07-08T13:38:31;7.65;;;3.90;;
10174;SDS011;18221;38.704;0.152;2023-07-08T13:41:05;6.93;;;3.67;;
10174;SDS011;18221;38.704;0.152;2023-07-08T13:43:38;9.52;;;3.90;;
10174;SDS011;18221;38.704;0.152;2023-07-08T13:48:58;8.27;;;3.92;;
10174;SDS011;18221;38.704;0.152;2023-07-08T13:51:29;5.65;;;3.83;;
10174;SDS011;18221;38.704;0.152;2023-07-08T13:54:00;12.63;;;4.50;;
10174;SDS011;18221;38.704;0.152;2023-07-08T13:56:41;7.57;;;3.70;;
10174;SDS011;18221;38.704;0.152;2023-07-08T13:59:11;6.03;;;4.18;;
10174;SDS011;18221;38.704;0.152;2023-07-08T14:01:45;5.72;;;3.47;;
10174;SDS011;18221;38.704;0.152;2023-07-08T14:04:18;6.25;;;3.85;;
10174;SDS011;18221;38.704;0.152;2023-07-08T14:06:54;8.05;;;3.97;;
10174;SDS011;18221;38.704;0.152;2023-07-08T14:09:22;6.97;;;4.20;;
10174;SDS011;18221;38.704;0.152;2023-07-08T14:11:51;5.70;;;3.72;;
10174;SDS011;18221;38.704;0.152;2023-07-08T14:14:20;9.32;;;3.80;;
10174;SDS011;18221;38.704;0.152;2023-07-08T14:16:48;5.80;;;3.97;;
10174;SDS011;18221;38.704;0.152;2023-07-08T14:19:21;6.47;;;3.80;;
10174;SDS011;18221;38.704;0.152;2023-07-08T14:21:55;6.43;;;3.65;;
10174;SDS011;18221;38.704;0.152;2023-07-08T14:24:26;4.88;;;3.75;;
10174;SDS011;18221;38.704;0.152;2023-07-08T14:26:54;6.03;;;3.80;;
10174;SDS011;18221;38.704;0.152;2023-07-08T14:29:23;5.20;;;3.70;;
10174;SDS011;18221;38.704;0.152;2023-07-08T14:31:51;6.13;;;3.80;;
10174;SDS011;18221;38.704;0.152;2023-07-08T14:34:22;6.13;;;4.25;;
10174;SDS011;18221;38.704;0.152;2023-07-08T14:36:52;9.13;;;4.22;;
10174;SDS011;18221;38.704;0.152;2023-07-08T14:39:21;7.25;;;3.67;;
10174;SDS011;18221;38.704;0.152;2023-07-08T14:41:49;9.02;;;4.00;;
10174;SDS011;18221;38.704;0.152;2023-07-08T14:44:19;6.10;;;4.20;;
10174;SDS011;18221;38.704;0.152;2023-07-08T14:46:50;7.57;;;3.97;;
10174;SDS011;18221;38.704;0.152;2023-07-08T14:49:22;6.93;;;3.80;;
10174;SDS011;18221;38.704;0.152;2023-07-08T14:51:51;6.32;;;3.53;;
10174;SDS011;18221;38.704;0.152;2023-07-08T14:54:20;8.75;;;3.90;;
10174;SDS011;18221;38.704;0.152;2023-07-08T14:56:48;5.25;;;3.53;;
10174;SDS011;18221;38.704;0.152;2023-07-08T14:59:47;5.65;;;3.60;;
10174;SDS011;18221;38.704;0.152;2023-07-08T15:02:18;7.35;;;3.50;;
10174;SDS011;18221;38.704;0.152;2023-07-08T15:04:48;6.53;;;3.75;;
10174;SDS011;18221;38.704;0.152;2023-07-08T15:07:19;6.40;;;3.72;;
10174;SDS011;18221;38.704;0.152;2023-07-08T15:09:47;9.07;;;3.80;;
10174;SDS011;18221;38.704;0.152;2023-07-08T15:12:15;8.65;;;3.55;;
10174;SDS011;18221;38.704;0.152;2023-07-08T15:14:43;4.80;;;3.15;;
10174;SDS011;18221;38.704;0.152;2023-07-08T15:17:14;4.65;;;3.20;;
10174;SDS011;18221;38.704;0.152;2023-07-08T15:19:43;5.72;;;3.60;;
10174;SDS011;18221;38.704;0.152;2023-07-08T15:22:11;5.13;;;3.58;;
10174;SDS011;18221;38.704;0.152;2023-07-08T15:24:39;6.88;;;3.67;;
10174;SDS011;18221;38.704;0.152;2023-07-08T15:27:08;6.28;;;3.70;;
10174;SDS011;18221;38.704;0.152;2023-07-08T15:29:38;4.65;;;3.50;;
10174;SDS011;18221;38.704;0.152;2023-07-08T15:32:09;6.22;;;3.58;;
10174;SDS011;18221;38.704;0.152;2023-07-08T15:34:44;4.45;;;3.60;;